sensor_id;sensor_type;location;lat;lon;timestamp;pressure;altitude;pressure_sealevel;temperature;humidity
3096;BME280;1558;42.700;23.360;2023-04-26T00:02:23;94434.22;;;8.65;100.00
3096;BME280;1558;42.700;23.360;2023-04-26T00:04:53;94419.34;;;8.56;100.00
3096;BME280;1558;42.700;23.360;2023-04-26T00:07:22;94421.72;;;8.57;100.00
3096;BME280;1558;42.700;23.360;2023-04-26T00:09:51;94421.81;;;8.49;100.00
3096;BME280;1558;42.700;23.360;2023-04-26T00:12:19;94422.53;;;8.46;100.00
3096;BME280;1558;42.700;23.360;2023-04-26T00:14:49;94416.78;;;8.47;100.00
3096;BME280;1558;42.700;23.360;2023-04-26T00:17:17;94410.19;;;8.45;100.00
3096;BME280;1558;42.700;23.360;2023-04-26T00:19:45;94403.34;;;8.47;100.00
3096;BME280;1558;42.700;23.360;2023-04-26T00:22:13;94395.66;;;8.46;100.00
3096;BME280;1558;42.700;23.360;2023-04-26T00:24:42;94400.66;;;8.47;100.00
3096;BME280;1558;42.700;23.360;2023-04-26T00:27:10;94401.78;;;8.46;100.00
3096;BME280;1558;42.700;23.360;2023-04-26T00:29:38;94399.34;;;8.41;100.00
3096;BME280;1558;42.700;23.360;2023-04-26T00:32:07;94388.06;;;8.36;100.00
3096;BME280;1558;42.700;23.360;2023-04-26T00:34:36;94398.44;;;8.37;100.00
3096;BME280;1558;42.700;23.360;2023-04-26T00:37:04;94397.78;;;8.40;100.00
3096;BME280;1558;42.700;23.360;2023-04-26T00:39:32;94389.72;;;8.40;100.00
3096;BME280;1558;42.700;23.360;2023-04-26T00:42:00;94393.06;;;8.49;100.00
3096;BME280;1558;42.700;23.360;2023-04-26T00:44:28;94381.97;;;8.51;100.00
3096;BME280;1558;42.700;23.360;2023-04-26T00:46:57;94387.03;;;8.40;100.00
3096;BME280;1558;42.700;23.360;2023-04-26T00:49:26;94379.19;;;8.35;100.00
3096;BME280;1558;42.700;23.360;2023-04-26T00:51:55;94365.91;;;8.27;100.00
3096;BME280;1558;42.700;23.360;2023-04-26T00:54:24;94392.19;;;8.33;100.00
3096;BME280;1558;42.700;23.360;2023-04-26T00:56:53;94394.31;;;8.28;100.00
3096;BME280;1558;42.700;23.360;2023-04-26T00:59:21;94394.44;;;8.19;100.00
3096;BME280;1558;42.700;23.360;2023-04-26T01:01:49;94388.38;;;8.22;100.00
3096;BME280;1558;42.700;23.360;2023-04-26T01:04:17;94390.88;;;8.27;100.00
3096;BME280;1558;42.700;23.360;2023-04-26T01:06:47;94386.16;;;8.36;100.00
3096;BME280;1558;42.700;23.360;2023-04-26T01:09:16;94392.84;;;8.42;100.00
3096;BME280;1558;42.700;23.360;2023-04-26T01:11:45;94396.16;;;8.51;100.00
3096;BME280;1558;42.700;23.360;2023-04-26T01:14:14;94364.22;;;8.34;100.00
3096;BME280;1558;42.700;23.360;2023-04-26T01:16:42;94389.13;;;8.47;100.00
3096;BME280;1558;42.700;23.360;2023-04-26T01:19:13;94397.78;;;8.40;100.00
3096;BME280;1558;42.700;23.360;2023-04-26T01:21:42;94400.50;;;8.28;100.00
3096;BME280;1558;42.700;23.360;2023-04-26T01:24:12;94393.56;;;8.27;100.00
3096;BME280;1558;42.700;23.360;2023-04-26T01:26:40;94379.13;;;8.32;100.00
3096;BME280;1558;42.700;23.360;2023-04-26T01:29:16;94354.59;;;8.33;100.00
3096;BME280;1558;42.700;23.360;2023-04-26T01:31:46;94376.50;;;8.47;100.00
3096;BME280;1558;42.700;23.360;2023-04-26T01:34:14;94313.66;;;8.12;100.00
3096;BME280;1558;42.700;23.360;2023-04-26T01:36:42;94361.19;;;8.24;100.00
3096;BME280;1558;42.700;23.360;2023-04-26T01:39:11;94385.94;;;8.29;100.00
3096;BME280;1558;42.700;23.360;2023-04-26T01:41:39;94381.44;;;8.33;100.00
3096;BME280;1558;42.700;23.360;2023-04-26T01:44:07;94378.41;;;8.35;100.00
3096;BME280;1558;42.700;23.360;2023-04-26T01:46:35;94376.72;;;8.42;100.00
3096;BME280;1558;42.700;23.360;2023-04-26T01:49:04;94391.72;;;8.43;100.00
3096;BME280;1558;42.700;23.360;2023-04-26T01:51:32;94401.78;;;8.46;100.00
3096;BME280;1558;42.700;23.360;2023-04-26T01:54:00;94401.03;;;8.46;100.00
3096;BME280;1558;42.700;23.360;2023-04-26T01:56:30;94388.47;;;8.50;100.00
3096;BME280;1558;42.700;23.360;2023-04-26T01:58:58;94397.97;;;8.47;100.00
3096;BME280;1558;42.700;23.360;2023-04-26T02:01:26;94388.59;;;8.41;100.00
3096;BME280;1558;42.700;23.360;2023-04-26T02:03:54;94383.47;;;8.36;100.00
3096;BME280;1558;42.700;23.360;2023-04-26T02:06:22;94383.59;;;8.28;100.00
3096;BME280;1558;42.700;23.360;2023-04-26T02:08:51;94383.47;;;8.24;100.00
3096;BME280;1558;42.700;23.360;2023-04-26T02:11:19;94374.25;;;8.25;100.00
3096;BME280;1558;42.700;23.360;2023-04-26T02:13:50;94373.28;;;8.17;100.00
3096;BME280;1558;42.700;23.360;2023-04-26T02:16:18;94377.22;;;8.20;100.00
3096;BME280;1558;42.700;23.360;2023-04-26T02:18:47;94377.44;;;8.15;100.00
3096;BME280;1558;42.700;23.360;2023-04-26T02:21:16;94363.59;;;8.01;100.00
3096;BME280;1558;42.700;23.360;2023-04-26T02:23:44;94369.03;;;8.04;100.00
3096;BME280;1558;42.700;23.360;2023-04-26T02:26:12;94371.16;;;7.99;100.00
3096;BME280;1558;42.700;23.360;2023-04-26T02:28:40;94368.75;;;7.94;100.00
3096;BME280;1558;42.700;23.360;2023-04-26T02:31:10;94374.88;;;7.94;100.00
3096;BME280;1558;42.700;23.360;2023-04-26T02:33:38;94377.25;;;7.96;100.00
3096;BME280;1558;42.700;23.360;2023-04-26T02:36:06;94375.22;;;8.05;100.00
3096;BME280;1558;42.700;23.360;2023-04-26T02:38:35;94361.78;;;8.05;100.00
3096;BME280;1558;42.700;23.360;2023-04-26T02:41:03;94382.13;;;8.06;100.00
3096;BME280;1558;42.700;23.360;2023-04-26T02:43:32;94357.00;;;7.86;100.00
3096;BME280;1558;42.700;23.360;2023-04-26T02:46:00;94382.69;;;7.99;100.00
3096;BME280;1558;42.700;23.360;2023-04-26T02:48:29;94378.13;;;8.00;100.00
3096;BME280;1558;42.700;23.360;2023-04-26T02:50:57;94367.38;;;8.00;100.00
3096;BME280;1558;42.700;23.360;2023-04-26T02:53:25;94355.06;;;7.87;100.00
3096;BME280;1558;42.700;23.360;2023-04-26T02:55:53;94363.13;;;7.99;100.00
3096;BME280;1558;42.700;23.360;2023-04-26T02:58:21;94358.22;;;8.01;100.00
3096;BME280;1558;42.700;23.360;2023-04-26T03:00:49;94345.03;;;7.96;100.00
3096;BME280;1558;42.700;23.360;2023-04-26T03:03:17;94357.97;;;8.06;100.00
3096;BME280;1558;42.700;23.360;2023-04-26T03:05:47;94364.78;;;8.03;100.00
3096;BME280;1558;42.700;23.360;2023-04-26T03:08:15;94319.09;;;7.76;100.00
3096;BME280;1558;42.700;23.360;2023-04-26T03:10:44;94364.78;;;8.03;100.00
3096;BME280;1558;42.700;23.360;2023-04-26T03:13:12;94363.00;;;8.07;100.00
3096;BME280;1558;42.700;23.360;2023-04-26T03:15:43;94359.19;;;8.08;100.00
3096;BME280;1558;42.700;23.360;2023-04-26T03:18:11;94373.63;;;8.04;100.00
3096;BME280;1558;42.700;23.360;2023-04-26T03:20:40;94370.41;;;8.10;100.00
3096;BME280;1558;42.700;23.360;2023-04-26T03:23:10;94333.59;;;7.99;100.00
3096;BME280;1558;42.700;23.360;2023-04-26T03:25:37;94353.81;;;8.08;100.00
3096;BME280;1558;42.700;23.360;2023-04-26T03:28:06;94343.88;;;8.09;100.00
3096;BME280;1558;42.700;23.360;2023-04-26T03:30:34;94349.91;;;8.06;100.00
3096;BME280;1558;42.700;23.360;2023-04-26T03:33:02;94342.09;;;8.01;100.00
3096;BME280;1558;42.700;23.360;2023-04-26T03:35:30;94347.91;;;8.03;100.00
3096;BME280;1558;42.700;23.360;2023-04-26T03:37:58;94356.28;;;8.13;100.00
3096;BME280;1558;42.700;23.360;2023-04-26T03:40:27;94353.59;;;8.13;100.00
3096;BME280;1558;42.700;23.360;2023-04-26T03:42:55;94351.25;;;8.12;100.00
3096;BME280;1558;42.700;23.360;2023-04-26T03:45:23;94362.44;;;8.14;100.00
3096;BME280;1558;42.700;23.360;2023-04-26T03:47:52;94361.13;;;8.08;100.00
3096;BME280;1558;42.700;23.360;2023-04-26T03:50:20;94357.19;;;8.17;100.00
3096;BME280;1558;42.700;23.360;2023-04-26T03:52:49;94364.91;;;8.31;100.00
3096;BME280;1558;42.700;23.360;2023-04-26T03:55:17;94364.16;;;8.46;100.00
3096;BME280;1558;42.700;23.360;2023-04-26T03:57:46;94375.56;;;8.55;100.00
3096;BME280;1558;42.700;23.360;2023-04-26T04:00:15;94370.06;;;8.64;100.00
3096;BME280;1558;42.700;23.360;2023-04-26T04:02:43;94371.03;;;8.71;100.00
3096;BME280;1558;42.700;23.360;2023-04-26T04:05:11;94372.09;;;8.82;100.00
3096;BME280;1558;42.700;23.360;2023-04-26T04:07:40;94342.78;;;8.77;100.00
3096;BME280;1558;42.700;23.360;2023-04-26T04:10:08;94361.84;;;9.00;100.00
3096;BME280;1558;42.700;23.360;2023-04-26T04:12:37;94364.78;;;9.11;100.00
3096;BME280;1558;42.700;23.360;2023-04-26T04:15:08;94374.63;;;9.19;100.00
3096;BME280;1558;42.700;23.360;2023-04-26T04:17:36;94383.41;;;9.31;100.00
3096;BME280;1558;42.700;23.360;2023-04-26T04:20:06;94351.97;;;9.20;100.00
3096;BME280;1558;42.700;23.360;2023-04-26T04:22:34;94390.97;;;9.41;100.00
3096;BME280;1558;42.700;23.360;2023-04-26T04:25:05;94388.63;;;9.55;100.00
3096;BME280;1558;42.700;23.360;2023-04-26T04:27:35;94390.97;;;9.57;100.00
3096;BME280;1558;42.700;23.360;2023-04-26T04:30:05;94322.09;;;9.56;100.00
3096;BME280;1558;42.700;23.360;2023-04-26T04:32:35;94396.94;;;10.82;100.00
3096;BME280;1558;42.700;23.360;2023-04-26T04:35:05;94390.50;;;11.48;100.00
3096;BME280;1558;42.700;23.360;2023-04-26T04:37:34;94404.81;;;11.94;100.00
3096;BME280;1558;42.700;23.360;2023-04-26T04:40:02;94399.81;;;11.96;100.00
3096;BME280;1558;42.700;23.360;2023-04-26T04:42:31;94402.97;;;12.24;100.00
3096;BME280;1558;42.700;23.360;2023-04-26T04:45:00;94399.63;;;12.34;100.00
3096;BME280;1558;42.700;23.360;2023-04-26T04:47:29;94396.53;;;11.83;100.00
3096;BME280;1558;42.700;23.360;2023-04-26T04:49:58;94399.66;;;11.43;100.00
3096;BME280;1558;42.700;23.360;2023-04-26T04:52:26;94373.88;;;10.85;100.00
3096;BME280;1558;42.700;23.360;2023-04-26T04:54:54;94367.47;;;10.55;100.00
3096;BME280;1558;42.700;23.360;2023-04-26T04:57:22;94401.41;;;10.75;100.00
3096;BME280;1558;42.700;23.360;2023-04-26T04:59:51;94400.69;;;10.78;100.00
3096;BME280;1558;42.700;23.360;2023-04-26T05:02:19;94398.38;;;10.76;100.00
3096;BME280;1558;42.700;23.360;2023-04-26T05:04:47;94369.31;;;10.51;100.00
3096;BME280;1558;42.700;23.360;2023-04-26T05:07:17;94402.19;;;10.75;100.00
3096;BME280;1558;42.700;23.360;2023-04-26T05:09:44;94407.22;;;10.77;100.00
3096;BME280;1558;42.700;23.360;2023-04-26T05:12:13;94410.53;;;11.05;100.00
3096;BME280;1558;42.700;23.360;2023-04-26T05:14:41;94398.06;;;11.01;100.00
3096;BME280;1558;42.700;23.360;2023-04-26T05:17:09;94382.34;;;10.83;100.00
3096;BME280;1558;42.700;23.360;2023-04-26T05:19:38;94398.22;;;11.08;100.00
3096;BME280;1558;42.700;23.360;2023-04-26T05:22:06;94408.66;;;11.09;100.00
3096;BME280;1558;42.700;23.360;2023-04-26T05:24:35;94403.69;;;11.11;100.00
3096;BME280;1558;42.700;23.360;2023-04-26T05:27:03;94408.44;;;11.18;100.00
3096;BME280;1558;42.700;23.360;2023-04-26T05:29:31;94401.81;;;11.34;100.00
3096;BME280;1558;42.700;23.360;2023-04-26T05:31:59;94412.47;;;11.27;100.00
3096;BME280;1558;42.700;23.360;2023-04-26T05:34:28;94413.34;;;11.31;100.00
3096;BME280;1558;42.700;23.360;2023-04-26T05:36:55;94416.16;;;11.38;100.00
3096;BME280;1558;42.700;23.360;2023-04-26T05:39:24;94403.09;;;11.63;100.00
3096;BME280;1558;42.700;23.360;2023-04-26T05:41:53;94400.66;;;11.77;100.00
3096;BME280;1558;42.700;23.360;2023-04-26T05:44:21;94419.97;;;11.56;100.00
3096;BME280;1558;42.700;23.360;2023-04-26T05:46:49;94409.44;;;11.71;100.00
3096;BME280;1558;42.700;23.360;2023-04-26T05:49:17;94427.56;;;11.93;100.00
3096;BME280;1558;42.700;23.360;2023-04-26T05:51:45;94428.28;;;11.90;100.00
3096;BME280;1558;42.700;23.360;2023-04-26T05:54:13;94426.38;;;11.90;100.00
3096;BME280;1558;42.700;23.360;2023-04-26T05:56:41;94431.47;;;11.73;100.00
3096;BME280;1558;42.700;23.360;2023-04-26T05:59:10;94411.16;;;11.60;100.00
3096;BME280;1558;42.700;23.360;2023-04-26T06:01:39;94433.09;;;11.58;100.00
3096;BME280;1558;42.700;23.360;2023-04-26T06:04:07;94432.81;;;11.63;100.00
3096;BME280;1558;42.700;23.360;2023-04-26T06:06:36;94440.91;;;11.63;100.00
3096;BME280;1558;42.700;23.360;2023-04-26T06:09:04;94429.84;;;11.68;100.00
3096;BME280;1558;42.700;23.360;2023-04-26T06:11:32;94439.28;;;11.58;100.00
3096;BME280;1558;42.700;23.360;2023-04-26T06:14:00;94428.94;;;11.41;100.00
3096;BME280;1558;42.700;23.360;2023-04-26T06:16:29;94440.00;;;11.97;100.00
3096;BME280;1558;42.700;23.360;2023-04-26T06:18:57;94447.66;;;12.97;100.00
3096;BME280;1558;42.700;23.360;2023-04-26T06:21:25;94434.56;;;14.05;100.00
3096;BME280;1558;42.700;23.360;2023-04-26T06:23:53;94437.81;;;14.69;100.00
3096;BME280;1558;42.700;23.360;2023-04-26T06:26:21;94432.81;;;14.23;100.00
3096;BME280;1558;42.700;23.360;2023-04-26T06:28:49;94417.91;;;14.03;100.00
3096;BME280;1558;42.700;23.360;2023-04-26T06:31:17;94423.66;;;13.98;100.00
3096;BME280;1558;42.700;23.360;2023-04-26T06:33:48;94426.41;;;14.46;100.00
3096;BME280;1558;42.700;23.360;2023-04-26T06:36:17;94428.78;;;15.26;100.00
3096;BME280;1558;42.700;23.360;2023-04-26T06:38:45;94409.63;;;16.02;100.00
3096;BME280;1558;42.700;23.360;2023-04-26T06:41:13;94409.53;;;17.04;100.00
3096;BME280;1558;42.700;23.360;2023-04-26T06:43:41;94343.69;;;17.20;100.00
3096;BME280;1558;42.700;23.360;2023-04-26T06:46:09;94403.25;;;17.25;100.00
3096;BME280;1558;42.700;23.360;2023-04-26T06:48:37;94397.88;;;17.00;100.00
3096;BME280;1558;42.700;23.360;2023-04-26T06:51:07;94375.00;;;15.95;100.00
3096;BME280;1558;42.700;23.360;2023-04-26T06:53:35;94399.25;;;14.42;100.00
3096;BME280;1558;42.700;23.360;2023-04-26T06:56:03;94398.38;;;14.89;100.00
3096;BME280;1558;42.700;23.360;2023-04-26T06:58:31;94407.63;;;14.81;99.63
3096;BME280;1558;42.700;23.360;2023-04-26T07:01:00;94396.47;;;15.00;95.54
3096;BME280;1558;42.700;23.360;2023-04-26T07:03:45;94403.72;;;15.65;97.59
3096;BME280;1558;42.700;23.360;2023-04-26T07:06:15;94401.06;;;16.35;91.56
3096;BME280;1558;42.700;23.360;2023-04-26T07:08:43;94403.41;;;16.22;83.08
3096;BME280;1558;42.700;23.360;2023-04-26T07:11:11;94414.22;;;15.77;79.21
3096;BME280;1558;42.700;23.360;2023-04-26T07:13:39;94399.09;;;15.76;84.10
3096;BME280;1558;42.700;23.360;2023-04-26T07:16:07;94408.63;;;15.27;83.47
3096;BME280;1558;42.700;23.360;2023-04-26T07:18:35;94375.53;;;14.32;83.86
3096;BME280;1558;42.700;23.360;2023-04-26T07:21:23;94412.47;;;14.47;85.60
3096;BME280;1558;42.700;23.360;2023-04-26T07:23:53;94421.94;;;13.80;85.60
3096;BME280;1558;42.700;23.360;2023-04-26T07:26:21;94424.41;;;13.55;93.10
3096;BME280;1558;42.700;23.360;2023-04-26T07:28:50;94423.13;;;13.12;93.83
3096;BME280;1558;42.700;23.360;2023-04-26T07:31:18;94425.34;;;13.36;97.23
3096;BME280;1558;42.700;23.360;2023-04-26T07:33:46;94423.72;;;13.62;95.09
3096;BME280;1558;42.700;23.360;2023-04-26T07:36:14;94427.13;;;13.22;94.61
3096;BME280;1558;42.700;23.360;2023-04-26T07:38:43;94431.69;;;14.82;88.04
3096;BME280;1558;42.700;23.360;2023-04-26T07:41:11;94423.69;;;15.14;82.29
3096;BME280;1558;42.700;23.360;2023-04-26T07:43:42;94422.38;;;14.80;82.14
3096;BME280;1558;42.700;23.360;2023-04-26T07:46:10;94424.09;;;15.09;80.96
3096;BME280;1558;42.700;23.360;2023-04-26T07:48:38;94427.25;;;15.25;76.63
3096;BME280;1558;42.700;23.360;2023-04-26T07:51:07;94420.44;;;14.84;76.96
3096;BME280;1558;42.700;23.360;2023-04-26T07:53:36;94425.84;;;14.26;77.89
3096;BME280;1558;42.700;23.360;2023-04-26T07:56:07;94430.63;;;14.40;77.58
3096;BME280;1558;42.700;23.360;2023-04-26T07:58:37;94438.91;;;14.13;80.46
3096;BME280;1558;42.700;23.360;2023-04-26T08:01:05;94432.53;;;14.36;75.16
3096;BME280;1558;42.700;23.360;2023-04-26T08:03:35;94438.13;;;14.09;75.80
3096;BME280;1558;42.700;23.360;2023-04-26T08:06:03;94444.09;;;14.80;77.32
3096;BME280;1558;42.700;23.360;2023-04-26T08:08:32;94434.47;;;14.35;74.97
3096;BME280;1558;42.700;23.360;2023-04-26T08:11:01;94439.75;;;14.21;76.15
3096;BME280;1558;42.700;23.360;2023-04-26T08:13:35;94414.31;;;14.33;77.22
3096;BME280;1558;42.700;23.360;2023-04-26T08:16:04;94437.13;;;15.65;73.26
3096;BME280;1558;42.700;23.360;2023-04-26T08:18:32;94435.25;;;15.97;69.27
3096;BME280;1558;42.700;23.360;2023-04-26T08:21:00;94430.94;;;15.82;70.95
3096;BME280;1558;42.700;23.360;2023-04-26T08:23:32;94409.63;;;16.19;68.84
3096;BME280;1558;42.700;23.360;2023-04-26T08:26:01;94427.09;;;16.71;67.51
3096;BME280;1558;42.700;23.360;2023-04-26T08:28:29;94420.50;;;16.37;66.77
3096;BME280;1558;42.700;23.360;2023-04-26T08:30:59;94428.19;;;15.72;68.98
3096;BME280;1558;42.700;23.360;2023-04-26T08:33:27;94428.41;;;14.56;70.55
3096;BME280;1558;42.700;23.360;2023-04-26T08:35:58;94439.50;;;14.37;74.55
3096;BME280;1558;42.700;23.360;2023-04-26T08:38:26;94431.66;;;14.79;72.09
3096;BME280;1558;42.700;23.360;2023-04-26T08:40:58;94426.09;;;15.33;70.77
3096;BME280;1558;42.700;23.360;2023-04-26T08:43:28;94424.69;;;15.61;69.32
3096;BME280;1558;42.700;23.360;2023-04-26T08:45:59;94414.22;;;15.66;69.07
3096;BME280;1558;42.700;23.360;2023-04-26T08:48:31;94424.88;;;15.17;68.92
3096;BME280;1558;42.700;23.360;2023-04-26T08:51:02;94412.91;;;14.56;70.90
3096;BME280;1558;42.700;23.360;2023-04-26T08:53:33;94427.63;;;14.52;71.11
3096;BME280;1558;42.700;23.360;2023-04-26T08:56:03;94412.72;;;14.32;72.81
3096;BME280;1558;42.700;23.360;2023-04-26T08:58:31;94428.63;;;14.91;71.07
3096;BME280;1558;42.700;23.360;2023-04-26T09:01:01;94429.97;;;14.57;71.53
3096;BME280;1558;42.700;23.360;2023-04-26T09:03:30;94401.13;;;14.96;72.71
3096;BME280;1558;42.700;23.360;2023-04-26T09:05:59;94427.38;;;15.53;69.08
3096;BME280;1558;42.700;23.360;2023-04-26T09:08:30;94435.22;;;15.80;66.68
3096;BME280;1558;42.700;23.360;2023-04-26T09:11:02;94439.09;;;15.75;67.35
3096;BME280;1558;42.700;23.360;2023-04-26T09:13:30;94417.22;;;15.43;67.14
3096;BME280;1558;42.700;23.360;2023-04-26T09:15:58;94442.81;;;15.39;66.92
3096;BME280;1558;42.700;23.360;2023-04-26T09:18:31;94434.44;;;14.89;65.71
3096;BME280;1558;42.700;23.360;2023-04-26T09:21:04;94444.41;;;14.68;68.24
3096;BME280;1558;42.700;23.360;2023-04-26T09:23:33;94413.66;;;14.50;68.77
3096;BME280;1558;42.700;23.360;2023-04-26T09:26:20;94444.59;;;15.00;68.17
3096;BME280;1558;42.700;23.360;2023-04-26T09:28:48;94442.31;;;15.09;67.02
3096;BME280;1558;42.700;23.360;2023-04-26T09:31:35;94442.31;;;15.09;65.32
3096;BME280;1558;42.700;23.360;2023-04-26T09:34:08;94439.28;;;15.31;66.57
3096;BME280;1558;42.700;23.360;2023-04-26T09:36:47;94441.38;;;15.52;64.10
3096;BME280;1558;42.700;23.360;2023-04-26T09:39:30;94430.47;;;15.48;65.17
3096;BME280;1558;42.700;23.360;2023-04-26T09:41:59;94440.47;;;15.30;65.53
3096;BME280;1558;42.700;23.360;2023-04-26T09:44:30;94440.22;;;14.84;65.60
3096;BME280;1558;42.700;23.360;2023-04-26T09:47:03;94427.88;;;14.94;66.07
3096;BME280;1558;42.700;23.360;2023-04-26T09:49:43;94433.44;;;15.22;65.51
3096;BME280;1558;42.700;23.360;2023-04-26T09:52:12;94436.53;;;15.17;63.89
3096;BME280;1558;42.700;23.360;2023-04-26T09:54:42;94439.44;;;15.59;63.73
3096;BME280;1558;42.700;23.360;2023-04-26T09:57:10;94404.28;;;15.09;62.21
3096;BME280;1558;42.700;23.360;2023-04-26T09:59:40;94435.31;;;15.04;64.51
3096;BME280;1558;42.700;23.360;2023-04-26T10:02:13;94443.19;;;15.30;62.95
3096;BME280;1558;42.700;23.360;2023-04-26T10:04:45;94445.06;;;15.19;62.63
3096;BME280;1558;42.700;23.360;2023-04-26T10:07:17;94435.41;;;15.29;60.82
3096;BME280;1558;42.700;23.360;2023-04-26T10:09:46;94431.66;;;15.58;60.42
3096;BME280;1558;42.700;23.360;2023-04-26T10:12:15;94380.84;;;15.97;60.17
3096;BME280;1558;42.700;23.360;2023-04-26T10:14:45;94438.41;;;16.66;56.77
3096;BME280;1558;42.700;23.360;2023-04-26T10:17:13;94425.16;;;16.72;55.95
3096;BME280;1558;42.700;23.360;2023-04-26T10:19:43;94419.34;;;16.66;55.60
3096;BME280;1558;42.700;23.360;2023-04-26T10:22:16;94415.06;;;16.16;54.83
3096;BME280;1558;42.700;23.360;2023-04-26T10:24:48;94417.69;;;15.67;56.31
3096;BME280;1558;42.700;23.360;2023-04-26T10:27:49;94420.50;;;14.98;57.14
3096;BME280;1558;42.700;23.360;2023-04-26T10:30:22;94386.59;;;14.64;57.47
3096;BME280;1558;42.700;23.360;2023-04-26T10:33:12;94428.22;;;14.89;57.96
3096;BME280;1558;42.700;23.360;2023-04-26T10:36:02;94416.25;;;15.01;58.31
3096;BME280;1558;42.700;23.360;2023-04-26T10:38:30;94424.88;;;15.17;58.51
3096;BME280;1558;42.700;23.360;2023-04-26T10:41:34;94417.84;;;15.05;57.14
3096;BME280;1558;42.700;23.360;2023-04-26T10:47:24;94412.66;;;15.62;55.91
3096;BME280;1558;42.700;23.360;2023-04-26T10:50:05;94273.44;;;14.78;56.05
3096;BME280;1558;42.700;23.360;2023-04-26T10:52:36;94411.16;;;15.89;55.22
3096;BME280;1558;42.700;23.360;2023-04-26T10:55:05;94411.09;;;15.68;53.40
3096;BME280;1558;42.700;23.360;2023-04-26T10:57:52;94408.72;;;15.45;53.32
3096;BME280;1558;42.700;23.360;2023-04-26T11:00:30;94409.81;;;15.37;54.14
3096;BME280;1558;42.700;23.360;2023-04-26T11:03:03;94403.31;;;15.55;53.22
3096;BME280;1558;42.700;23.360;2023-04-26T11:05:40;94411.09;;;15.68;53.85
3096;BME280;1558;42.700;23.360;2023-04-26T11:08:17;94408.06;;;16.11;53.00
3096;BME280;1558;42.700;23.360;2023-04-26T11:10:56;94408.88;;;16.61;51.39
3096;BME280;1558;42.700;23.360;2023-04-26T11:13:29;94408.88;;;16.54;51.12
3096;BME280;1558;42.700;23.360;2023-04-26T11:16:06;94406.13;;;16.15;51.29
3096;BME280;1558;42.700;23.360;2023-04-26T11:18:40;94397.19;;;16.18;51.40
3096;BME280;1558;42.700;23.360;2023-04-26T11:21:11;94400.69;;;16.58;52.08
3096;BME280;1558;42.700;23.360;2023-04-26T11:23:54;94412.69;;;16.92;49.32
3096;BME280;1558;42.700;23.360;2023-04-26T11:26:31;94407.97;;;17.10;49.50
3096;BME280;1558;42.700;23.360;2023-04-26T11:29:17;94405.66;;;17.02;48.54
3096;BME280;1558;42.700;23.360;2023-04-26T11:31:52;94416.63;;;16.63;50.28
3096;BME280;1558;42.700;23.360;2023-04-26T11:34:30;94408.59;;;17.53;50.38
3096;BME280;1558;42.700;23.360;2023-04-26T11:37:01;94409.34;;;17.50;48.04
3096;BME280;1558;42.700;23.360;2023-04-26T11:39:36;94414.34;;;17.69;49.31
3096;BME280;1558;42.700;23.360;2023-04-26T11:42:10;94406.25;;;17.48;48.74
3096;BME280;1558;42.700;23.360;2023-04-26T11:44:43;94380.72;;;17.86;49.13
3096;BME280;1558;42.700;23.360;2023-04-26T11:47:14;94398.91;;;18.07;45.88
3096;BME280;1558;42.700;23.360;2023-04-26T11:49:59;94393.94;;;17.15;46.84
3096;BME280;1558;42.700;23.360;2023-04-26T11:52:30;94406.25;;;17.48;48.61
3096;BME280;1558;42.700;23.360;2023-04-26T11:55:08;94398.91;;;17.31;48.08
3096;BME280;1558;42.700;23.360;2023-04-26T11:57:39;94396.13;;;17.45;47.36
3096;BME280;1558;42.700;23.360;2023-04-26T12:00:13;94411.09;;;17.02;48.07
3096;BME280;1558;42.700;23.360;2023-04-26T12:02:44;94402.63;;;16.47;49.42
3096;BME280;1558;42.700;23.360;2023-04-26T12:05:21;94406.09;;;16.19;50.60
3096;BME280;1558;42.700;23.360;2023-04-26T12:07:50;94385.53;;;16.57;49.07
3096;BME280;1558;42.700;23.360;2023-04-26T12:10:26;94383.03;;;17.15;48.90
3096;BME280;1558;42.700;23.360;2023-04-26T12:13:00;94404.50;;;16.96;49.09
3096;BME280;1558;42.700;23.360;2023-04-26T12:15:32;94392.53;;;16.54;49.96
3096;BME280;1558;42.700;23.360;2023-04-26T12:18:06;94390.19;;;16.03;50.34
3096;BME280;1558;42.700;23.360;2023-04-26T12:20:40;94398.75;;;16.09;50.00
3096;BME280;1558;42.700;23.360;2023-04-26T12:23:11;94400.66;;;15.98;51.17
3096;BME280;1558;42.700;23.360;2023-04-26T12:25:57;94391.72;;;15.94;50.87
3096;BME280;1558;42.700;23.360;2023-04-26T12:28:34;94401.84;;;16.11;50.21
3096;BME280;1558;42.700;23.360;2023-04-26T12:31:07;94401.44;;;15.88;50.13
3096;BME280;1558;42.700;23.360;2023-04-26T12:33:39;94361.31;;;15.35;50.63
3096;BME280;1558;42.700;23.360;2023-04-26T12:36:17;94395.53;;;15.50;50.39
3096;BME280;1558;42.700;23.360;2023-04-26T12:38:48;94374.91;;;15.35;50.37
3096;BME280;1558;42.700;23.360;2023-04-26T12:41:22;94396.19;;;15.23;50.40
3096;BME280;1558;42.700;23.360;2023-04-26T12:43:53;94330.53;;;15.03;51.58
3096;BME280;1558;42.700;23.360;2023-04-26T12:46:21;94353.16;;;15.35;50.68
3096;BME280;1558;42.700;23.360;2023-04-26T12:48:56;94254.03;;;14.73;52.26
3096;BME280;1558;42.700;23.360;2023-04-26T12:51:24;94380.66;;;15.27;51.87
3096;BME280;1558;42.700;23.360;2023-04-26T12:53:54;94389.13;;;15.04;52.69
3096;BME280;1558;42.700;23.360;2023-04-26T12:56:25;94395.72;;;15.00;52.96
3096;BME280;1558;42.700;23.360;2023-04-26T12:58:57;94402.19;;;14.81;52.97
3096;BME280;1558;42.700;23.360;2023-04-26T13:01:35;94390.91;;;14.72;52.29
3096;BME280;1558;42.700;23.360;2023-04-26T13:04:05;94398.25;;;14.68;53.33
3096;BME280;1558;42.700;23.360;2023-04-26T13:06:36;94417.56;;;14.56;53.10
3096;BME280;1558;42.700;23.360;2023-04-26T13:09:06;94395.06;;;14.55;53.17
3096;BME280;1558;42.700;23.360;2023-04-26T13:11:36;94401.94;;;14.39;53.64
3096;BME280;1558;42.700;23.360;2023-04-26T13:14:10;94417.38;;;14.31;54.37
3096;BME280;1558;42.700;23.360;2023-04-26T13:16:39;94417.13;;;14.03;54.01
3096;BME280;1558;42.700;23.360;2023-04-26T13:19:14;94400.72;;;13.89;54.28
3096;BME280;1558;42.700;23.360;2023-04-26T13:21:46;94411.97;;;13.91;53.40
3096;BME280;1558;42.700;23.360;2023-04-26T13:24:15;94427.94;;;13.99;53.37
3096;BME280;1558;42.700;23.360;2023-04-26T13:26:47;94430.13;;;13.83;53.54
3096;BME280;1558;42.700;23.360;2023-04-26T13:29:31;94428.56;;;13.82;53.32
3096;BME280;1558;42.700;23.360;2023-04-26T13:32:03;94415.75;;;13.79;53.41